createdAt,value
2018-07-10T00:00:01.242Z,63.05
2018-07-10T00:01:01.231Z,62.75
2018-07-10T00:02:01.222Z,63.15
2018-07-10T00:03:01.234Z,63.35
2018-07-10T00:04:01.194Z,63.28
2018-07-10T00:05:01.181Z,63.39
2018-07-10T00:06:01.169Z,63.96
2018-07-10T00:07:01.161Z,63.89
2018-07-10T00:08:01.176Z,63.59
2018-07-10T00:09:01.160Z,63.76
2018-07-10T00:10:01.126Z,63.28
2018-07-10T00:11:01.114Z,62.95
2018-07-10T00:12:01.106Z,63.18
2018-07-10T00:13:01.094Z,63.65
2018-07-10T00:14:01.079Z,62.78
2018-07-10T00:15:01.091Z,63.59
2018-07-10T00:16:01.057Z,62.38
2018-07-10T00:17:01.071Z,63.18
2018-07-10T00:18:01.037Z,62.98
2018-07-10T00:19:01.048Z,62.78
2018-07-10T00:20:01.010Z,62.88
2018-07-10T00:21:01.032Z,62.98
2018-07-10T00:22:00.991Z,63.08
2018-07-10T00:23:00.981Z,62.88
2018-07-10T00:24:00.967Z,63.59
2018-07-10T00:25:00.956Z,63.18
2018-07-10T00:26:00.948Z,62.88
2018-07-10T00:27:00.952Z,63.08
2018-07-10T00:28:00.920Z,62.98
2018-07-10T00:29:00.910Z,63.21
2018-07-10T00:30:00.900Z,62.48
2018-07-10T00:31:00.886Z,63.11
2018-07-10T00:32:00.876Z,63.01
2018-07-10T00:33:00.884Z,63.42
2018-07-10T00:34:00.854Z,63.92
2018-07-10T00:35:00.845Z,63.92
2018-07-10T00:36:00.830Z,63.42
2018-07-10T00:37:00.819Z,63.62
2018-07-10T00:38:00.808Z,63.62
2018-07-10T00:39:00.820Z,63.62
2018-07-10T00:40:00.786Z,64.22
2018-07-10T00:41:00.777Z,64.32
2018-07-10T00:42:00.765Z,64.52
2018-07-10T00:43:00.754Z,63.62
2018-07-10T00:44:00.740Z,64.12
2018-07-10T00:45:00.748Z,64.52
2018-07-10T00:46:00.721Z,64.52
2018-07-10T00:47:00.709Z,63.82
2018-07-10T00:48:00.699Z,64.02
2018-07-10T00:49:00.686Z,63.82
2018-07-10T00:50:00.672Z,63.21
2018-07-10T00:51:00.683Z,63.11
2018-07-10T00:52:00.650Z,63.95
2018-07-10T00:53:00.640Z,63.21
2018-07-10T00:54:00.633Z,63.31
2018-07-10T00:55:00.615Z,63.21
2018-07-10T00:56:00.603Z,63.11
2018-07-10T00:57:00.618Z,62.91
2018-07-10T00:58:00.585Z,62.94
2018-07-10T00:59:00.569Z,64.35
2018-07-10T01:00:00.557Z,64.38
2018-07-10T01:01:00.548Z,65.09
2018-07-10T01:02:00.536Z,65.49
2018-07-10T01:03:00.551Z,65.56
2018-07-10T01:04:00.520Z,65.26
2018-07-10T01:05:00.505Z,65.56
2018-07-10T01:06:00.495Z,64.95
2018-07-10T01:07:00.480Z,65.19
2018-07-10T01:08:00.471Z,65.39
2018-07-10T01:09:00.484Z,65.39
2018-07-10T01:10:00.449Z,65.59
2018-07-10T01:11:00.443Z,65.79
2018-07-10T01:12:00.428Z,65.69
2018-07-10T01:13:00.415Z,65.59
2018-07-10T01:14:00.404Z,65.29
2018-07-10T01:15:00.425Z,65.19
2018-07-10T01:16:00.382Z,65.69
2018-07-10T01:17:00.371Z,65.62
2018-07-10T01:18:00.361Z,66.02
2018-07-10T01:19:00.443Z,65.99
2018-07-10T01:20:00.341Z,66.33
2018-07-10T01:21:00.350Z,66.30
2018-07-10T01:22:00.318Z,66.63
2018-07-10T01:23:00.307Z,67.13
2018-07-10T01:24:00.298Z,66.93
2018-07-10T01:25:00.284Z,66.93
2018-07-10T01:26:00.279Z,66.83
2018-07-10T01:27:00.284Z,67.03
2018-07-10T01:28:00.250Z,67.43
2018-07-10T01:29:00.241Z,67.74
2018-07-10T01:30:00.230Z,67.33
2018-07-10T01:31:00.219Z,67.33
2018-07-10T01:32:00.209Z,67.23
2018-07-10T01:33:00.226Z,66.83
2018-07-10T01:34:00.188Z,66.93
2018-07-10T01:35:00.175Z,66.93
2018-07-10T01:36:00.167Z,66.63
2018-07-10T01:37:00.154Z,66.42
2018-07-10T01:38:00.142Z,66.73
2018-07-10T01:39:00.153Z,65.62
2018-07-10T01:40:00.121Z,65.82
2018-07-10T01:41:00.109Z,66.05
2018-07-10T01:42:00.099Z,65.72
2018-07-10T01:43:00.088Z,65.12
2018-07-10T01:44:00.075Z,65.65
2018-07-10T01:45:00.090Z,65.65
2018-07-10T01:46:00.053Z,65.35
2018-07-10T01:47:00.050Z,65.15
2018-07-10T01:48:00.038Z,64.95
2018-07-10T01:49:00.021Z,65.45
2018-07-10T01:50:00.012Z,65.55
2018-07-10T01:51:00.033Z,65.15
2018-07-10T01:51:59.988Z,64.75
2018-07-10T01:52:59.980Z,64.84
2018-07-10T01:53:59.963Z,64.75
2018-07-10T01:54:59.953Z,64.95
2018-07-10T01:55:59.942Z,64.75
2018-07-10T01:56:59.953Z,64.34
2018-07-10T01:57:59.922Z,64.95
2018-07-10T01:58:59.910Z,64.24
2018-07-10T01:59:59.900Z,64.44
2018-07-10T02:00:59.887Z,64.51
2018-07-10T02:01:59.875Z,64.54
2018-07-10T02:02:59.913Z,64.75
2018-07-10T02:03:59.853Z,64.01
2018-07-10T02:04:59.841Z,64.31
2018-07-10T02:05:59.830Z,64.34
2018-07-10T02:06:59.822Z,63.53
2018-07-10T02:07:59.808Z,64.64
2018-07-10T02:08:59.823Z,64.47
2018-07-10T02:09:59.786Z,64.34
2018-07-10T02:10:59.801Z,63.93
2018-07-10T02:11:59.764Z,63.43
2018-07-10T02:12:59.753Z,63.96
2018-07-10T02:13:59.750Z,64.07
2018-07-10T02:14:59.754Z,64.37
2018-07-10T02:15:59.722Z,63.56
2018-07-10T02:16:59.713Z,63.56
2018-07-10T02:17:59.707Z,63.87
2018-07-10T02:18:59.690Z,63.76
2018-07-10T02:19:59.678Z,63.56
2018-07-10T02:20:59.688Z,63.36
2018-07-10T02:21:59.656Z,62.96
2018-07-10T02:22:59.647Z,62.76
2018-07-10T02:23:59.636Z,63.26
2018-07-10T02:24:59.625Z,63.26
2018-07-10T02:25:59.613Z,63.76
2018-07-10T02:26:59.628Z,63.26
2018-07-10T02:27:59.593Z,63.56
2018-07-10T02:28:59.583Z,63.26
2018-07-10T02:29:59.574Z,64.00
2018-07-10T02:30:59.559Z,63.49
2018-07-10T02:31:59.549Z,63.70
2018-07-10T02:32:59.560Z,63.70
2018-07-10T02:33:59.528Z,63.79
2018-07-10T02:34:59.516Z,64.30
2018-07-10T02:35:59.505Z,64.43
2018-07-10T02:36:59.494Z,64.20
2018-07-10T02:37:59.493Z,64.70
2018-07-10T02:38:59.495Z,64.00
2018-07-10T02:39:59.469Z,63.90
2018-07-10T02:40:59.456Z,63.39
2018-07-10T02:41:59.440Z,63.70
2018-07-10T02:42:59.430Z,64.70
2018-07-10T02:43:59.420Z,64.50
2018-07-10T02:44:59.433Z,64.40
2018-07-10T02:45:59.397Z,64.40
2018-07-10T02:46:59.387Z,64.61
2018-07-10T02:47:59.377Z,64.43
2018-07-10T02:48:59.364Z,65.04
2018-07-10T02:49:59.356Z,64.81
2018-07-10T02:50:59.366Z,64.73
2018-07-10T02:51:59.331Z,64.84
2018-07-10T02:52:59.322Z,64.94
2018-07-10T02:53:59.311Z,64.53
2018-07-10T02:54:59.299Z,64.64
2018-07-10T02:55:59.288Z,64.73
2018-07-10T02:56:59.297Z,64.64
2018-07-10T02:57:59.269Z,64.33
2018-07-10T02:58:59.256Z,63.93
2018-07-10T02:59:59.244Z,64.56
2018-07-10T03:00:59.233Z,64.67
2018-07-10T03:01:59.223Z,64.56
2018-07-10T03:02:59.248Z,64.56
2018-07-10T03:03:59.202Z,64.56
2018-07-10T03:04:59.189Z,64.67
2018-07-10T03:05:59.178Z,64.76
2018-07-10T03:06:59.168Z,65.07
2018-07-10T03:07:59.156Z,64.97
2018-07-10T03:08:59.166Z,64.76
2018-07-10T03:09:59.236Z,65.07
2018-07-10T03:10:59.122Z,64.87
2018-07-10T03:11:59.115Z,64.67
2018-07-10T03:12:59.101Z,64.56
2018-07-10T03:13:59.092Z,65.07
2018-07-10T03:14:59.098Z,65.17
2018-07-10T03:15:59.078Z,65.57
2018-07-10T03:16:59.079Z,65.57
2018-07-10T03:17:59.046Z,65.57
2018-07-10T03:18:59.281Z,65.78
2018-07-10T03:19:59.024Z,65.57
2018-07-10T03:20:59.047Z,65.81
2018-07-10T03:21:59.000Z,66.11
2018-07-10T03:22:58.991Z,66.01
2018-07-10T03:23:58.979Z,65.81
2018-07-10T03:24:58.970Z,65.91
2018-07-10T03:25:58.958Z,65.61
2018-07-10T03:26:58.977Z,65.70
2018-07-10T03:27:58.936Z,66.11
2018-07-10T03:28:58.925Z,65.61
2018-07-10T03:29:58.912Z,65.70
2018-07-10T03:30:58.904Z,65.61
2018-07-10T03:31:58.889Z,65.81
2018-07-10T03:32:58.903Z,65.40
2018-07-10T03:33:58.870Z,65.50
2018-07-10T03:34:58.856Z,65.81
2018-07-10T03:35:58.844Z,65.43
2018-07-10T03:36:58.835Z,65.73
2018-07-10T03:37:58.848Z,66.04
2018-07-10T03:38:58.839Z,65.61
2018-07-10T03:39:58.800Z,65.81
2018-07-10T03:40:58.789Z,65.70
2018-07-10T03:41:58.780Z,65.81
2018-07-10T03:42:58.768Z,65.40
2018-07-10T03:43:58.755Z,65.81
2018-07-10T03:44:58.769Z,65.70
2018-07-10T03:45:58.736Z,66.11
2018-07-10T03:46:58.725Z,65.61
2018-07-10T03:47:58.711Z,65.70
2018-07-10T03:48:58.699Z,65.70
2018-07-10T03:49:58.691Z,65.70
2018-07-10T03:50:58.696Z,65.81
2018-07-10T03:51:58.667Z,65.30
2018-07-10T03:52:58.658Z,65.20
2018-07-10T03:53:58.644Z,65.30
2018-07-10T03:54:58.633Z,65.70
2018-07-10T03:55:58.631Z,64.90
2018-07-10T03:56:58.635Z,64.70
2018-07-10T03:57:58.601Z,64.90
2018-07-10T03:58:58.589Z,64.90
2018-07-10T03:59:58.578Z,65.10
2018-07-10T04:00:58.570Z,65.20
2018-07-10T04:01:58.554Z,65.20
2018-07-10T04:02:58.569Z,64.90
2018-07-10T04:03:58.532Z,65.30
2018-07-10T04:04:58.523Z,64.70
2018-07-10T04:05:58.518Z,64.90
2018-07-10T04:06:58.503Z,65.70
2018-07-10T04:07:58.490Z,65.81
2018-07-10T04:08:58.509Z,66.21
2018-07-10T04:09:58.465Z,65.91
2018-07-10T04:10:58.455Z,65.61
2018-07-10T04:11:58.442Z,65.91
2018-07-10T04:12:58.433Z,65.91
2018-07-10T04:13:58.425Z,66.52
2018-07-10T04:14:58.438Z,67.35
2018-07-10T04:15:58.400Z,67.43
2018-07-10T04:16:58.386Z,67.02
2018-07-10T04:17:58.533Z,67.02
2018-07-10T04:18:58.366Z,67.83
2018-07-10T04:19:58.354Z,67.63
2018-07-10T04:20:58.363Z,67.52
2018-07-10T04:21:58.331Z,66.52
2018-07-10T04:22:58.319Z,66.82
2018-07-10T04:23:58.310Z,66.35
2018-07-10T04:24:58.299Z,66.72
2018-07-10T04:25:58.285Z,66.24
2018-07-10T04:26:58.295Z,66.35
2018-07-10T04:27:58.274Z,66.24
2018-07-10T04:28:58.268Z,65.84
2018-07-10T04:29:58.241Z,66.14
2018-07-10T04:30:58.231Z,65.73
2018-07-10T04:31:58.219Z,65.84
2018-07-10T04:32:58.234Z,65.64
2018-07-10T04:33:58.199Z,65.64
2018-07-10T04:34:58.187Z,65.53
2018-07-10T04:35:58.175Z,65.10
2018-07-10T04:36:58.164Z,64.90
2018-07-10T04:37:58.153Z,64.70
2018-07-10T04:38:58.163Z,65.00
2018-07-10T04:39:58.130Z,64.83
2018-07-10T04:40:58.128Z,65.20
2018-07-10T04:41:58.109Z,64.39
2018-07-10T04:42:58.098Z,64.59
2018-07-10T04:43:58.086Z,64.83
2018-07-10T04:44:58.095Z,64.83
2018-07-10T04:45:58.061Z,64.93
2018-07-10T04:46:58.052Z,65.23
2018-07-10T04:47:58.040Z,64.73
2018-07-10T04:48:58.043Z,65.23
2018-07-10T04:49:58.018Z,65.33
2018-07-10T04:50:58.036Z,64.83
2018-07-10T04:51:57.995Z,64.12
2018-07-10T04:52:57.984Z,63.71
2018-07-10T04:53:57.972Z,63.92
2018-07-10T04:54:57.964Z,64.02
2018-07-10T04:55:57.951Z,64.19
2018-07-10T04:56:57.964Z,63.08
2018-07-10T04:57:57.931Z,63.18
2018-07-10T04:58:57.916Z,63.89
2018-07-10T04:59:57.905Z,64.49
2018-07-10T05:00:57.894Z,64.29
2018-07-10T05:01:57.888Z,64.79
2018-07-10T05:02:57.892Z,64.09
2018-07-10T05:03:57.862Z,63.68
2018-07-10T05:04:57.851Z,64.22
2018-07-10T05:05:57.911Z,63.78
2018-07-10T05:06:57.830Z,63.71
2018-07-10T05:07:57.818Z,63.51
2018-07-10T05:08:57.838Z,64.12
2018-07-10T05:09:57.794Z,64.22
2018-07-10T05:10:57.785Z,64.12
2018-07-10T05:11:57.791Z,63.01
2018-07-10T05:12:57.764Z,63.21
2018-07-10T05:13:57.757Z,63.21
2018-07-10T05:14:57.761Z,63.01
2018-07-10T05:15:57.729Z,62.77
2018-07-10T05:16:57.719Z,63.08
2018-07-10T05:17:57.705Z,64.79
2018-07-10T05:18:57.695Z,63.48
2018-07-10T05:19:57.690Z,63.48
2018-07-10T05:20:57.706Z,63.68
2018-07-10T05:21:57.661Z,63.48
2018-07-10T05:22:57.702Z,63.48
2018-07-10T05:23:57.638Z,63.35
2018-07-10T05:24:57.626Z,62.85
2018-07-10T05:25:57.616Z,63.25
2018-07-10T05:26:57.642Z,61.63
2018-07-10T05:27:57.594Z,61.53
2018-07-10T05:28:57.712Z,62.27
2018-07-10T05:29:57.582Z,62.16
2018-07-10T05:30:57.565Z,62.47
2018-07-10T05:31:57.548Z,61.76
2018-07-10T05:32:57.558Z,61.96
2018-07-10T05:33:57.527Z,62.07
2018-07-10T05:34:57.517Z,61.56
2018-07-10T05:35:57.505Z,61.56
2018-07-10T05:36:57.493Z,61.76
2018-07-10T05:37:57.484Z,62.16
2018-07-10T05:38:57.491Z,62.27
2018-07-10T05:39:57.480Z,61.76
2018-07-10T05:40:57.452Z,61.66
2018-07-10T05:41:57.437Z,61.43
2018-07-10T05:42:57.427Z,61.53
2018-07-10T05:43:57.416Z,62.04
2018-07-10T05:44:57.434Z,61.73
2018-07-10T05:45:57.404Z,62.14
2018-07-10T05:46:57.388Z,61.43
2018-07-10T05:47:57.375Z,61.43
2018-07-10T05:48:57.371Z,61.53
2018-07-10T05:49:57.356Z,61.83
2018-07-10T05:50:57.362Z,61.94
2018-07-10T05:51:57.332Z,62.04
2018-07-10T05:52:57.319Z,61.53
2018-07-10T05:53:57.309Z,61.94
2018-07-10T05:54:57.298Z,61.73
2018-07-10T05:55:57.292Z,61.53
2018-07-10T05:56:57.299Z,61.83
2018-07-10T05:57:57.265Z,62.04
2018-07-10T05:58:57.254Z,61.43
2018-07-10T05:59:57.243Z,59.91
2018-07-10T06:00:57.233Z,60.22
2018-07-10T06:01:57.219Z,60.52
2018-07-10T06:02:57.241Z,60.12
2018-07-10T06:03:57.200Z,61.51
2018-07-10T06:04:57.188Z,60.12
2018-07-10T06:05:57.177Z,60.62
2018-07-10T06:06:57.177Z,60.12
2018-07-10T06:07:57.160Z,59.91
2018-07-10T06:08:57.169Z,60.02
2018-07-10T06:09:57.133Z,59.61
2018-07-10T06:10:57.124Z,59.91
2018-07-10T06:11:57.116Z,60.02
2018-07-10T06:12:57.102Z,59.91
2018-07-10T06:13:57.096Z,60.22
2018-07-10T06:14:57.099Z,60.22
2018-07-10T06:15:57.071Z,59.21
2018-07-10T06:16:57.084Z,59.71
2018-07-10T06:17:57.052Z,59.51
2018-07-10T06:18:57.038Z,59.99
2018-07-10T06:19:57.028Z,59.69
2018-07-10T06:20:57.042Z,59.51
2018-07-10T06:21:57.004Z,58.98
2018-07-10T06:22:56.995Z,58.58
2018-07-10T06:23:56.987Z,58.98
2018-07-10T06:24:56.974Z,59.18
2018-07-10T06:25:56.963Z,58.78
2018-07-10T06:26:56.969Z,59.28
2018-07-10T06:27:56.939Z,59.48
2018-07-10T06:28:56.925Z,58.75
2018-07-10T06:29:56.914Z,58.34
2018-07-10T06:30:56.907Z,58.34
2018-07-10T06:31:56.894Z,58.62
2018-07-10T06:32:56.977Z,57.31
2018-07-10T06:33:56.904Z,57.38
2018-07-10T06:34:56.909Z,57.05
2018-07-10T06:35:56.874Z,55.91
2018-07-10T06:36:56.879Z,53.40
2018-07-10T06:40:30.016Z,44.95
2018-07-10T06:41:14.039Z,43.93
2018-07-10T06:42:14.044Z,42.15
2018-07-10T06:43:14.018Z,41.91
2018-07-10T06:44:14.005Z,40.62
2018-07-10T06:45:13.994Z,39.69
2018-07-10T06:46:13.995Z,38.75
2018-07-10T06:47:13.988Z,37.77
2018-07-10T06:48:13.962Z,39.18
2018-07-10T06:49:13.957Z,39.50
2018-07-10T06:50:13.947Z,37.76
2018-07-10T06:51:13.930Z,37.56
2018-07-10T06:52:13.961Z,37.76
2018-07-10T06:53:14.400Z,40.58
2018-07-10T06:54:13.898Z,41.08
2018-07-10T06:55:13.904Z,42.27
2018-07-10T06:56:13.877Z,44.42
2018-07-10T06:57:13.885Z,40.10
2018-07-10T06:58:13.857Z,42.82
2018-07-10T06:59:13.848Z,45.28
2018-07-10T07:00:13.832Z,46.87
2018-07-10T07:01:13.821Z,48.75
2018-07-10T07:02:13.815Z,51.41
2018-07-10T07:03:13.814Z,53.25
2018-07-10T07:04:13.788Z,53.25
2018-07-10T07:05:13.778Z,53.14
2018-07-10T07:06:13.771Z,53.95
2018-07-10T07:07:13.759Z,53.92
2018-07-10T07:08:13.758Z,53.09
2018-07-10T07:09:13.734Z,48.41
2018-07-10T07:10:13.724Z,46.89
2018-07-10T07:11:13.713Z,45.03
2018-07-10T07:12:13.703Z,41.74
2018-07-10T07:13:13.700Z,41.75
2018-07-10T07:14:13.683Z,40.82
2018-07-10T07:15:13.669Z,40.58
2018-07-10T07:16:13.657Z,40.60
2018-07-10T07:17:13.645Z,39.62
2018-07-10T07:18:13.650Z,43.05
2018-07-10T07:19:13.622Z,45.84
2018-07-10T07:20:13.615Z,46.38
2018-07-10T07:21:13.602Z,48.23
2018-07-10T07:22:13.591Z,48.55
2018-07-10T07:23:13.594Z,49.10
2018-07-10T07:24:13.570Z,49.71
2018-07-10T07:25:13.559Z,50.56
2018-07-10T07:26:13.547Z,51.39
2018-07-10T07:27:13.537Z,52.62
2018-07-10T07:28:13.539Z,52.09
2018-07-10T07:29:13.514Z,52.19
2018-07-10T07:30:13.504Z,52.67
2018-07-10T07:31:13.495Z,51.76
2018-07-10T07:32:13.485Z,51.24
2018-07-10T07:33:13.492Z,50.38
2018-07-10T07:34:13.465Z,46.37
2018-07-10T07:35:13.448Z,44.70
2018-07-10T07:36:13.437Z,47.61
2018-07-10T07:37:13.427Z,48.60
2018-07-10T07:38:13.417Z,50.98
2018-07-10T07:39:13.417Z,52.57
2018-07-10T07:40:13.394Z,53.88
2018-07-10T07:41:13.387Z,53.88
2018-07-10T07:42:13.377Z,54.48
2018-07-10T07:43:13.361Z,54.58
2018-07-10T07:44:13.373Z,55.08
2018-07-10T07:45:13.340Z,55.71
2018-07-10T07:46:13.330Z,55.59
2018-07-10T07:47:13.318Z,54.58
2018-07-10T07:48:13.308Z,54.46
2018-07-10T07:49:13.313Z,54.03
2018-07-10T07:50:13.283Z,53.63
2018-07-10T07:51:13.274Z,52.11
2018-07-10T07:52:13.271Z,52.49
2018-07-10T07:53:13.253Z,53.22
2018-07-10T07:54:13.249Z,53.63
2018-07-10T07:55:13.239Z,54.08
2018-07-10T07:56:13.217Z,55.08
2018-07-10T07:57:13.207Z,55.19
2018-07-10T07:58:13.193Z,55.39
2018-07-10T07:59:13.186Z,56.20
2018-07-10T08:00:13.186Z,55.89
2018-07-10T08:01:13.165Z,55.99
2018-07-10T08:02:13.154Z,56.09
2018-07-10T08:03:13.139Z,55.79
2018-07-10T08:04:13.130Z,55.79
2018-07-10T08:05:13.130Z,55.71
2018-07-10T08:06:13.137Z,55.91
2018-07-10T08:07:13.096Z,56.02
2018-07-10T08:08:13.088Z,55.97
2018-07-10T08:09:13.076Z,56.85
2018-07-10T08:10:13.080Z,56.75
2018-07-10T08:11:13.052Z,56.65
2018-07-10T08:12:13.043Z,56.65
2018-07-10T08:13:13.033Z,55.94
2018-07-10T08:14:13.027Z,56.85
2018-07-10T08:15:13.021Z,56.75
2018-07-10T08:16:12.997Z,56.62
2018-07-10T08:17:12.990Z,56.62
2018-07-10T08:18:12.974Z,55.89
2018-07-10T08:19:12.986Z,55.29
2018-07-10T08:20:12.966Z,56.09
2018-07-10T08:21:12.941Z,54.55
2018-07-10T08:22:12.932Z,54.46
2018-07-10T08:23:12.923Z,54.15
2018-07-10T08:24:12.910Z,54.15
2018-07-10T08:25:12.911Z,54.58
2018-07-10T08:26:12.894Z,54.46
2018-07-10T08:27:12.877Z,53.65
2018-07-10T08:28:12.864Z,53.83
2018-07-10T08:29:12.857Z,54.13
2018-07-10T08:30:12.853Z,52.31
2018-07-10T08:31:12.893Z,53.00
2018-07-10T08:32:12.819Z,52.59
2018-07-10T08:33:12.812Z,53.90
2018-07-10T08:34:12.800Z,53.80
2018-07-10T08:35:12.801Z,53.63
2018-07-10T08:36:12.775Z,52.51
2018-07-10T08:37:12.764Z,52.44
2018-07-10T08:38:12.759Z,52.34
2018-07-10T08:39:12.752Z,53.05
2018-07-10T08:40:12.756Z,52.72
2018-07-10T08:41:12.720Z,52.51
2018-07-10T08:42:12.710Z,52.72
2018-07-10T08:43:12.710Z,52.31
2018-07-10T08:44:12.688Z,52.31
2018-07-10T08:45:12.676Z,52.11
2018-07-10T08:46:12.685Z,52.44
2018-07-10T08:47:12.656Z,53.05
2018-07-10T08:48:12.644Z,53.55
2018-07-10T08:49:12.645Z,53.14
2018-07-10T08:50:12.623Z,52.31
2018-07-10T08:51:12.616Z,52.09
2018-07-10T08:52:12.616Z,52.67
2018-07-10T08:53:12.590Z,52.19
2018-07-10T08:54:12.580Z,52.06
2018-07-10T08:55:12.568Z,52.06
2018-07-10T08:56:12.556Z,52.34
2018-07-10T08:57:12.564Z,52.47
2018-07-10T08:58:12.546Z,51.84
2018-07-10T08:59:12.524Z,51.24
2018-07-10T09:00:12.514Z,50.21
2018-07-10T09:01:12.507Z,50.41
2018-07-10T09:02:12.507Z,50.91
2018-07-10T09:03:12.480Z,50.61
2018-07-10T09:04:12.471Z,50.29
2018-07-10T09:05:12.462Z,50.31
2018-07-10T09:06:12.449Z,50.21
2018-07-10T09:07:12.458Z,50.53
2018-07-10T09:08:12.428Z,50.81
2018-07-10T09:09:12.416Z,50.31
2018-07-10T09:10:12.409Z,50.63
2018-07-10T09:11:12.396Z,50.56
2018-07-10T09:12:12.405Z,50.58
2018-07-10T09:13:12.378Z,51.76
2018-07-10T09:14:12.364Z,50.35
2018-07-10T09:15:12.351Z,49.98
2018-07-10T09:16:12.345Z,47.24
2018-07-10T09:17:12.338Z,44.70
2018-07-10T09:18:12.332Z,44.82
2018-07-10T09:19:12.310Z,43.35
2018-07-10T09:20:12.297Z,43.25
2018-07-10T09:21:12.286Z,43.55
2018-07-10T09:22:12.274Z,43.55
2018-07-10T09:23:12.341Z,43.45
2018-07-10T09:24:12.254Z,44.25
2018-07-10T09:25:12.562Z,44.87
2018-07-10T09:26:12.231Z,43.55
2018-07-10T09:27:12.284Z,44.89
2018-07-10T09:28:12.218Z,45.50
2018-07-10T09:29:12.199Z,45.14
2018-07-10T09:30:13.377Z,47.08
2018-07-10T09:31:12.241Z,47.33
2018-07-10T09:32:12.367Z,48.63
2018-07-10T09:33:12.167Z,48.43
2018-07-10T09:34:12.148Z,49.74
2018-07-10T09:35:12.135Z,48.35
2018-07-10T09:36:12.137Z,48.25
2018-07-10T09:37:12.113Z,48.96
2018-07-10T09:38:12.211Z,49.46
2018-07-10T09:39:12.090Z,49.76
2018-07-10T09:40:12.081Z,48.25
2018-07-10T09:41:12.070Z,48.55
2018-07-10T09:42:12.061Z,48.78
2018-07-10T09:43:12.059Z,50.38
2018-07-10T09:44:12.088Z,48.40
2018-07-10T09:45:12.025Z,49.40
2018-07-10T09:46:12.014Z,49.21
2018-07-10T09:47:12.002Z,50.51
2018-07-10T09:48:12.002Z,49.48
2018-07-10T09:49:11.983Z,49.76
2018-07-10T09:50:11.969Z,47.75
2018-07-10T09:51:11.959Z,48.28
2018-07-10T09:52:11.955Z,47.96
2018-07-10T09:53:11.985Z,48.28
2018-07-10T09:54:11.930Z,48.35
2018-07-10T09:55:11.916Z,47.77
2018-07-10T09:56:11.904Z,47.97
2018-07-10T09:57:11.893Z,49.18
2018-07-10T09:58:12.004Z,48.90
2018-07-10T09:59:11.875Z,48.78
2018-07-10T10:00:11.860Z,48.28
2018-07-10T10:01:11.850Z,47.58
2018-07-10T10:02:11.838Z,47.67
2018-07-10T10:03:11.842Z,47.90
2018-07-10T10:04:11.815Z,47.85
2018-07-10T10:05:11.806Z,49.15
2018-07-10T10:06:11.794Z,50.05
2018-07-10T10:07:11.786Z,49.83
2018-07-10T10:08:11.790Z,49.53
2018-07-10T10:09:11.761Z,48.43
2018-07-10T10:10:11.748Z,50.43
2018-07-10T10:11:11.741Z,49.73
2018-07-10T10:12:11.728Z,49.83
2018-07-10T10:13:11.717Z,50.03
2018-07-10T10:14:11.719Z,50.61
2018-07-10T10:15:11.694Z,50.11
2018-07-10T10:16:11.679Z,50.33
2018-07-10T10:17:11.669Z,50.63
2018-07-10T10:18:11.657Z,50.53
2018-07-10T10:19:11.660Z,50.53
2018-07-10T10:20:11.642Z,50.93
2018-07-10T10:21:11.631Z,50.93
2018-07-10T10:22:11.615Z,51.34
2018-07-10T10:23:11.602Z,50.53
2018-07-10T10:24:11.604Z,50.84
2018-07-10T10:25:11.584Z,50.23
2018-07-10T10:26:11.573Z,50.33
2018-07-10T10:27:11.563Z,50.73
2018-07-10T10:28:11.552Z,49.83
2018-07-10T10:29:11.567Z,50.41
2018-07-10T10:30:11.529Z,51.81
2018-07-10T10:31:11.517Z,50.51
2018-07-10T10:32:11.511Z,50.31
2018-07-10T10:33:11.495Z,50.61
2018-07-10T10:34:11.484Z,50.41
2018-07-10T10:35:11.531Z,50.41
2018-07-10T10:36:11.478Z,50.11
2018-07-10T10:37:11.453Z,50.41
2018-07-10T10:38:11.442Z,50.41
2018-07-10T10:39:11.431Z,50.71
2018-07-10T10:40:11.431Z,50.71
2018-07-10T10:41:11.407Z,50.91
2018-07-10T10:42:11.396Z,52.04
2018-07-10T10:43:11.387Z,51.94
2018-07-10T10:44:11.376Z,52.74
2018-07-10T10:45:11.381Z,52.44
2018-07-10T10:46:11.356Z,52.55
2018-07-10T10:47:11.342Z,52.24
2018-07-10T10:48:11.331Z,52.42
2018-07-10T10:49:11.321Z,52.19
2018-07-10T10:50:11.321Z,52.69
2018-07-10T10:51:11.298Z,50.24
2018-07-10T10:52:11.289Z,50.36
2018-07-10T10:53:11.276Z,50.84
2018-07-10T10:54:11.265Z,50.16
2018-07-10T10:55:11.279Z,50.59
2018-07-10T10:56:11.240Z,50.29
2018-07-10T10:57:11.540Z,50.48
2018-07-10T10:58:11.220Z,50.21
2018-07-10T10:59:11.211Z,50.21
2018-07-10T11:00:11.368Z,50.29
2018-07-10T11:01:11.203Z,51.21
2018-07-10T11:02:11.218Z,50.41
2018-07-10T11:03:11.164Z,50.21
2018-07-10T11:04:11.155Z,50.41
2018-07-10T11:05:11.143Z,50.41
2018-07-10T11:06:11.143Z,50.41
2018-07-10T11:07:11.120Z,50.38
2018-07-10T11:08:11.108Z,50.41
2018-07-10T11:09:11.095Z,50.23
2018-07-10T11:10:11.085Z,50.46
2018-07-10T11:11:11.092Z,51.86
2018-07-10T11:12:11.065Z,51.97
2018-07-10T11:13:11.051Z,50.73
2018-07-10T11:14:11.040Z,50.81
2018-07-10T11:15:11.029Z,50.71
2018-07-10T11:16:11.033Z,50.38
2018-07-10T11:17:11.010Z,50.48
2018-07-10T11:18:11.004Z,49.96
2018-07-10T11:19:10.989Z,49.66
2018-07-10T11:20:10.974Z,49.76
2018-07-10T11:21:10.980Z,49.88
2018-07-10T11:22:10.950Z,50.36
2018-07-10T11:23:10.942Z,50.46
2018-07-10T11:24:10.928Z,50.36
2018-07-10T11:25:10.918Z,49.96
2018-07-10T11:26:10.906Z,49.86
2018-07-10T11:27:10.907Z,49.76
2018-07-10T11:28:10.884Z,50.36
2018-07-10T11:29:10.881Z,50.36
2018-07-10T11:30:10.861Z,50.48
2018-07-10T11:31:10.849Z,50.51
2018-07-10T11:32:10.850Z,50.09
2018-07-10T11:33:10.827Z,50.51
2018-07-10T11:34:10.817Z,50.48
2018-07-10T11:35:10.807Z,50.38
2018-07-10T11:36:10.795Z,50.26
2018-07-10T11:37:10.800Z,50.46
2018-07-10T11:38:10.782Z,50.29
2018-07-10T11:39:10.903Z,51.49
2018-07-10T11:40:10.751Z,50.48
2018-07-10T11:41:10.739Z,50.68
2018-07-10T11:42:10.726Z,51.81
2018-07-10T11:43:10.732Z,52.24
2018-07-10T11:44:10.703Z,52.62
2018-07-10T11:45:10.695Z,51.61
2018-07-10T11:46:10.687Z,51.81
2018-07-10T11:47:10.671Z,51.01
2018-07-10T11:48:10.677Z,50.91
2018-07-10T11:49:10.648Z,50.59
2018-07-10T11:50:10.636Z,50.36
2018-07-10T11:51:10.625Z,50.46
2018-07-10T11:52:10.615Z,49.56
2018-07-10T11:53:10.620Z,49.88
2018-07-10T11:54:10.593Z,50.59
2018-07-10T11:55:10.581Z,50.38
2018-07-10T11:56:10.588Z,50.71
2018-07-10T11:57:10.559Z,50.81
2018-07-10T11:58:10.548Z,50.51
2018-07-10T11:59:10.547Z,50.31
2018-07-10T12:00:10.526Z,50.71
2018-07-10T12:01:10.513Z,50.48
2018-07-10T12:02:10.503Z,50.36
2018-07-10T12:03:10.495Z,50.36
2018-07-10T12:04:10.494Z,49.93
2018-07-10T12:05:10.470Z,50.62
2018-07-10T12:06:10.466Z,49.74
2018-07-10T12:07:10.459Z,50.44
2018-07-10T12:08:10.435Z,49.84
2018-07-10T12:09:10.442Z,50.06
2018-07-10T12:10:10.411Z,50.66
2018-07-10T12:11:10.399Z,49.96
2018-07-10T12:12:10.389Z,50.48
2018-07-10T12:13:10.377Z,50.61
2018-07-10T12:14:10.374Z,50.51
2018-07-10T12:15:10.367Z,50.51
2018-07-10T12:16:10.343Z,50.29
2018-07-10T12:17:10.333Z,50.59
2018-07-10T12:18:10.319Z,50.59
2018-07-10T12:19:10.312Z,50.26
2018-07-10T12:20:10.319Z,50.18
2018-07-10T12:21:10.290Z,50.41
2018-07-10T12:22:10.275Z,51.72
2018-07-10T12:23:10.267Z,51.61
2018-07-10T12:24:10.253Z,51.94
2018-07-10T12:25:10.258Z,51.81
2018-07-10T12:26:10.254Z,51.61
2018-07-10T12:27:10.225Z,51.14
2018-07-10T12:28:10.220Z,51.94
2018-07-10T12:29:10.213Z,51.94
2018-07-10T12:30:10.204Z,52.34
2018-07-10T12:31:10.192Z,52.17
2018-07-10T12:32:10.174Z,52.37
2018-07-10T12:33:10.155Z,52.37
2018-07-10T12:34:10.145Z,52.39
2018-07-10T12:35:10.134Z,53.17
2018-07-10T12:36:10.138Z,52.19
2018-07-10T12:37:10.112Z,52.57
2018-07-10T12:38:10.102Z,52.97
2018-07-10T12:39:10.092Z,52.06
2018-07-10T12:40:10.083Z,52.59
2018-07-10T12:41:10.087Z,52.80
2018-07-10T12:42:10.070Z,52.89
2018-07-10T12:43:10.046Z,53.40
2018-07-10T12:44:10.035Z,53.09
2018-07-10T12:45:10.120Z,52.49
2018-07-10T12:46:10.022Z,52.57
2018-07-10T12:47:10.421Z,53.37
2018-07-10T12:48:09.995Z,53.07
2018-07-10T12:49:09.980Z,52.77
2018-07-10T12:50:09.969Z,53.27
2018-07-10T12:51:09.958Z,52.44
2018-07-10T12:52:09.965Z,52.24
2018-07-10T12:53:09.940Z,52.24
2018-07-10T12:54:09.926Z,52.47